Darstellungsparameter: Aktuell verwendete Einstellungen:
Skalierung der Graphiken ... ?
xyx+y,   Skalierungsfaktor:      Skalierung: Modus: x, Faktor: 1
Darstellungszeitraum ... ?
Vom - - bis: - -   Zeitraum: 15.11.2019 - 15.11.2019
Min/Max/Avg-Anzeige ... ?
Zeige MMA aktuell
Zeige MMA Monat
Zeige MMA alles
Zeige --A aktuell
Zeige --A Monat
Zeige --A alles
Keine MMA-Anzeige
MMA:
Keine MMA-Graphiken
MMA-Basis: 15.11.2019 - 15.11.2019
Quicknavigation für Darstellung... ?
Tage:      1T, 2T, 3T, 5T -1T -2T -3T -5T +1T +2T +3T +5T
Wochen: 1W, 2W, 3W -1W -2W -3W +1W +2W +3W
Monate: 1M, 3M, 6M -1M -3M -6M +1M +3M +6M
Jahre:    1J, 3J, 5J, 10J -1J -3J -5J -10J +1J +3J +5J +10J
Nutze für die Darstellung ... ?
Originaldaten oder Mittelwerte auf ...
Stundenbasis Tagesbasis Wochenbasis
Monatsbasis Jahresbasis      Datenbasis: Original-Daten
Darstellen als:
Statistik (Auto) Statistik J:M      Darstellung:
Zur Graphik,    zurück zur Übersicht aller Sensoren.
 
Tabellarische Datenbersicht: ?
 
Sensor: Nr:Datum:Temp:Feuchte:Taupunkt:
Aussen-T/F 1 15-11-2019 00:00:00 2.8 C 94 % 1.93 C
2 15-11-2019 00:05:00 2.8 C 94 % 1.93 C
3 15-11-2019 00:10:00 2.8 C 94 % 1.93 C
4 15-11-2019 00:15:00 2.9 C 94 % 2.03 C
5 15-11-2019 00:20:00 2.9 C 94 % 2.03 C
6 15-11-2019 00:25:00 2.9 C 93 % 1.88 C
7 15-11-2019 00:30:00 2.9 C 94 % 2.03 C
8 15-11-2019 00:35:00 3 C 94 % 2.13 C
9 15-11-2019 00:40:00 3.1 C 94 % 2.23 C
10 15-11-2019 00:45:00 3.1 C 94 % 2.23 C
11 15-11-2019 00:50:00 3.2 C 94 % 2.33 C
12 15-11-2019 00:55:00 3.3 C 94 % 2.43 C
13 15-11-2019 01:00:00 3.3 C 94 % 2.43 C
14 15-11-2019 01:05:00 3.4 C 94 % 2.53 C
15 15-11-2019 01:10:00 3.4 C 94 % 2.53 C
16 15-11-2019 01:15:00 3.4 C 94 % 2.53 C
17 15-11-2019 01:20:00 3.4 C 94 % 2.53 C
18 15-11-2019 01:25:00 3.4 C 94 % 2.53 C
19 15-11-2019 01:30:00 3.4 C 93 % 2.38 C
20 15-11-2019 01:35:00 3.4 C 93 % 2.38 C
21 15-11-2019 01:40:00 3.4 C 93 % 2.38 C
22 15-11-2019 01:45:00 3.5 C 93 % 2.48 C
23 15-11-2019 01:50:00 3.6 C 94 % 2.73 C
24 15-11-2019 01:55:00 3.6 C 94 % 2.73 C
25 15-11-2019 02:00:00 3.6 C 93 % 2.58 C
Sensor: Nr:Datum:Temp:Feuchte:Taupunkt:
Aussen-T/F 26 15-11-2019 02:05:00 3.6 C 93 % 2.58 C
27 15-11-2019 02:10:00 3.6 C 93 % 2.58 C
28 15-11-2019 02:15:00 3.5 C 93 % 2.48 C
29 15-11-2019 02:20:00 3.4 C 93 % 2.38 C
30 15-11-2019 02:25:00 3.4 C 93 % 2.38 C
31 15-11-2019 02:30:00 3.3 C 93 % 2.28 C
32 15-11-2019 02:35:00 3.3 C 93 % 2.28 C
33 15-11-2019 02:40:00 3.3 C 93 % 2.28 C
34 15-11-2019 02:45:00 3.3 C 93 % 2.28 C
35 15-11-2019 02:50:00 3.4 C 93 % 2.38 C
36 15-11-2019 02:55:00 3.5 C 93 % 2.48 C
37 15-11-2019 03:00:00 3.5 C 93 % 2.48 C
38 15-11-2019 03:05:00 3.6 C 93 % 2.58 C
39 15-11-2019 03:10:00 3.6 C 93 % 2.58 C
40 15-11-2019 03:15:00 3.6 C 93 % 2.58 C
41 15-11-2019 03:20:00 3.5 C 92 % 2.33 C
42 15-11-2019 03:25:00 3.5 C 92 % 2.33 C
43 15-11-2019 03:30:00 3.4 C 92 % 2.23 C
44 15-11-2019 03:35:00 3.3 C 92 % 2.13 C
45 15-11-2019 03:40:00 3.3 C 91 % 1.98 C
46 15-11-2019 03:45:00 3.2 C 92 % 2.03 C
47 15-11-2019 03:50:00 3.2 C 92 % 2.03 C
48 15-11-2019 03:55:00 3.1 C 92 % 1.93 C
49 15-11-2019 04:00:00 3.1 C 92 % 1.93 C
50 15-11-2019 04:05:00 3.1 C 92 % 1.93 C
Sensor: Nr:Datum:Temp:Feuchte:Taupunkt:
Aussen-T/F 51 15-11-2019 04:10:00 3.1 C 92 % 1.93 C
52 15-11-2019 04:15:00 3.1 C 92 % 1.93 C
53 15-11-2019 04:20:00 3.1 C 92 % 1.93 C
54 15-11-2019 04:25:00 3.3 C 92 % 2.13 C
55 15-11-2019 04:30:00 3.4 C 92 % 2.23 C
56 15-11-2019 04:35:00 3.5 C 92 % 2.33 C
57 15-11-2019 04:40:00 3.6 C 91 % 2.27 C
58 15-11-2019 04:45:00 3.7 C 91 % 2.37 C
59 15-11-2019 04:50:00 3.7 C 91 % 2.37 C
60 15-11-2019 04:55:00 3.7 C 91 % 2.37 C
61 15-11-2019 05:00:00 3.7 C 90 % 2.22 C
62 15-11-2019 05:05:00 3.7 C 91 % 2.37 C
63 15-11-2019 05:10:00 3.7 C 91 % 2.37 C
64 15-11-2019 05:15:00 3.6 C 90 % 2.12 C
65 15-11-2019 05:20:00 3.6 C 90 % 2.12 C
66 15-11-2019 05:25:00 3.6 C 90 % 2.12 C
67 15-11-2019 05:30:00 3.5 C 90 % 2.02 C
68 15-11-2019 05:35:00 3.5 C 90 % 2.02 C
69 15-11-2019 05:40:00 3.4 C 90 % 1.92 C
70 15-11-2019 05:45:00 3.3 C 90 % 1.82 C
71 15-11-2019 05:50:00 3.4 C 90 % 1.92 C
72 15-11-2019 05:55:00 3.4 C 90 % 1.92 C
73 15-11-2019 06:00:00 3.6 C 90 % 2.12 C
74 15-11-2019 06:05:00 3.6 C 90 % 2.12 C
75 15-11-2019 06:10:00 3.7 C 89 % 2.06 C
Sensor: Nr:Datum:Temp:Feuchte:Taupunkt:
Aussen-T/F 76 15-11-2019 06:15:00 3.8 C 88 % 2 C
77 15-11-2019 06:20:00 3.9 C 88 % 2.1 C
78 15-11-2019 06:25:00 3.9 C 88 % 2.1 C
79 15-11-2019 06:30:00 3.9 C 87 % 1.94 C
80 15-11-2019 06:35:00 4 C 87 % 2.04 C
81 15-11-2019 06:40:00 4 C 87 % 2.04 C
82 15-11-2019 06:45:00 4.1 C 87 % 2.14 C
83 15-11-2019 06:50:00 4.1 C 87 % 2.14 C
84 15-11-2019 06:55:00 4.1 C 87 % 2.14 C
85 15-11-2019 07:00:00 4.1 C 87 % 2.14 C
86 15-11-2019 07:05:00 4 C 87 % 2.04 C
87 15-11-2019 07:10:00 3.9 C 87 % 1.94 C
88 15-11-2019 07:15:00 3.9 C 87 % 1.94 C
89 15-11-2019 07:20:00 3.9 C 87 % 1.94 C
90 15-11-2019 07:25:00 3.9 C 87 % 1.94 C
91 15-11-2019 07:30:00 3.9 C 88 % 2.1 C
92 15-11-2019 07:35:00 3.9 C 88 % 2.1 C
93 15-11-2019 07:40:00 3.8 C 88 % 2 C
94 15-11-2019 07:45:00 3.8 C 88 % 2 C
95 15-11-2019 07:50:00 3.7 C 88 % 1.9 C
96 15-11-2019 07:55:00 3.8 C 88 % 2 C
97 15-11-2019 08:00:00 3.9 C 88 % 2.1 C
98 15-11-2019 08:05:00 3.9 C 88 % 2.1 C
99 15-11-2019 08:10:00 4.1 C 87 % 2.14 C
100 15-11-2019 08:15:00 4.1 C 87 % 2.14 C
Sensor: Nr:Datum:Temp:Feuchte:Taupunkt:
Aussen-T/F 101 15-11-2019 08:20:00 4.2 C 87 % 2.23 C
102 15-11-2019 08:25:00 4.1 C 87 % 2.14 C
103 15-11-2019 08:30:00 4.1 C 87 % 2.14 C
104 15-11-2019 08:35:00 4.1 C 87 % 2.14 C
105 15-11-2019 08:40:00 4.1 C 88 % 2.3 C
106 15-11-2019 08:45:00 4.1 C 88 % 2.3 C
107 15-11-2019 08:50:00 4 C 88 % 2.2 C
108 15-11-2019 08:55:00 4 C 88 % 2.2 C
109 15-11-2019 09:00:00 3.9 C 88 % 2.1 C
110 15-11-2019 09:05:00 3.9 C 88 % 2.1 C
111 15-11-2019 09:10:00 3.9 C 89 % 2.26 C
112 15-11-2019 09:15:00 4 C 89 % 2.36 C
113 15-11-2019 09:20:00 4 C 89 % 2.36 C
114 15-11-2019 09:25:00 4.1 C 89 % 2.45 C
115 15-11-2019 09:30:00 4.2 C 88 % 2.39 C
116 15-11-2019 09:35:00 4.4 C 88 % 2.59 C
117 15-11-2019 09:40:00 4.6 C 87 % 2.63 C
118 15-11-2019 09:45:00 4.7 C 86 % 2.56 C
119 15-11-2019 09:50:00 4.8 C 85 % 2.5 C
120 15-11-2019 09:55:00 4.8 C 85 % 2.5 C
121 15-11-2019 10:00:00 4.9 C 85 % 2.6 C
122 15-11-2019 10:05:00 5.1 C 86 % 2.96 C
123 15-11-2019 10:10:00 5.2 C 85 % 2.89 C
124 15-11-2019 10:15:00 5.2 C 84 % 2.72 C
125 15-11-2019 10:20:00 5.3 C 84 % 2.82 C
Sensor: Nr:Datum:Temp:Feuchte:Taupunkt:
Aussen-T/F 126 15-11-2019 10:25:00 5.4 C 83 % 2.75 C
127 15-11-2019 10:30:00 5.4 C 83 % 2.75 C
128 15-11-2019 10:35:00 5.5 C 83 % 2.85 C
129 15-11-2019 10:40:00 5.6 C 83 % 2.95 C
130 15-11-2019 10:45:00 5.6 C 82 % 2.78 C
131 15-11-2019 10:50:00 5.7 C 82 % 2.87 C
132 15-11-2019 10:55:00 5.7 C 82 % 2.87 C
133 15-11-2019 11:00:00 5.8 C 83 % 3.14 C
134 15-11-2019 11:05:00 5.8 C 82 % 2.97 C
135 15-11-2019 11:10:00 5.8 C 81 % 2.8 C
136 15-11-2019 11:15:00 5.8 C 81 % 2.8 C
137 15-11-2019 11:20:00 5.8 C 82 % 2.97 C
138 15-11-2019 11:25:00 5.8 C 82 % 2.97 C
139 15-11-2019 11:30:00 5.8 C 82 % 2.97 C
140 15-11-2019 11:35:00 5.8 C 82 % 2.97 C
141 15-11-2019 11:40:00 5.8 C 82 % 2.97 C
142 15-11-2019 11:45:00 5.9 C 82 % 3.07 C
143 15-11-2019 11:50:00 6.1 C 81 % 3.09 C
144 15-11-2019 11:55:00 6.2 C 81 % 3.19 C
145 15-11-2019 12:00:00 6.3 C 81 % 3.29 C
146 15-11-2019 12:05:00 6.4 C 82 % 3.56 C
147 15-11-2019 12:10:00 6.4 C 80 % 3.21 C
148 15-11-2019 12:15:00 6.5 C 80 % 3.31 C
149 15-11-2019 12:20:00 6.5 C 80 % 3.31 C
150 15-11-2019 12:25:00 6.6 C 81 % 3.58 C
Sensor: Nr:Datum:Temp:Feuchte:Taupunkt:
Aussen-T/F 151 15-11-2019 12:30:00 6.6 C 80 % 3.4 C
152 15-11-2019 12:35:00 6.6 C 81 % 3.58 C
153 15-11-2019 12:40:00 6.6 C 81 % 3.58 C
154 15-11-2019 12:45:00 6.7 C 81 % 3.68 C
155 15-11-2019 12:50:00 6.7 C 82 % 3.85 C
156 15-11-2019 12:55:00 6.7 C 81 % 3.68 C
157 15-11-2019 13:00:00 6.7 C 81 % 3.68 C
158 15-11-2019 13:05:00 6.8 C 81 % 3.77 C
159 15-11-2019 13:10:00 6.8 C 81 % 3.77 C
160 15-11-2019 13:15:00 6.9 C 81 % 3.87 C
161 15-11-2019 13:20:00 6.9 C 80 % 3.7 C
162 15-11-2019 13:25:00 7 C 82 % 4.14 C
163 15-11-2019 13:30:00 7.1 C 81 % 4.07 C
164 15-11-2019 13:35:00 7.2 C 80 % 3.99 C
165 15-11-2019 13:40:00 7.2 C 80 % 3.99 C
166 15-11-2019 13:45:00 7.3 C 80 % 4.09 C
167 15-11-2019 13:50:00 7.3 C 80 % 4.09 C
168 15-11-2019 13:55:00 7.4 C 80 % 4.18 C
169 15-11-2019 14:00:00 7.4 C 81 % 4.36 C
170 15-11-2019 14:05:00 7.5 C 79 % 4.1 C
171 15-11-2019 14:10:00 7.6 C 79 % 4.2 C
172 15-11-2019 14:15:00 7.6 C 80 % 4.38 C
173 15-11-2019 14:20:00 7.7 C 79 % 4.3 C
174 15-11-2019 14:25:00 7.7 C 79 % 4.3 C
175 15-11-2019 14:30:00 7.7 C 79 % 4.3 C
Sensor: Nr:Datum:Temp:Feuchte:Taupunkt:
Aussen-T/F 176 15-11-2019 14:35:00 7.8 C 79 % 4.39 C
177 15-11-2019 14:40:00 7.8 C 79 % 4.39 C
178 15-11-2019 14:45:00 7.8 C 79 % 4.39 C
179 15-11-2019 14:50:00 7.8 C 79 % 4.39 C
180 15-11-2019 14:55:00 7.8 C 79 % 4.39 C
181 15-11-2019 15:00:00 7.9 C 79 % 4.49 C
182 15-11-2019 15:05:00 7.9 C 78 % 4.31 C
183 15-11-2019 15:10:00 7.9 C 78 % 4.31 C
184 15-11-2019 15:15:00 7.9 C 78 % 4.31 C
185 15-11-2019 15:20:00 7.9 C 78 % 4.31 C
186 15-11-2019 15:25:00 7.9 C 78 % 4.31 C
187 15-11-2019 15:30:00 7.9 C 78 % 4.31 C
188 15-11-2019 15:35:00 7.9 C 78 % 4.31 C
189 15-11-2019 15:40:00 7.9 C 79 % 4.49 C
190 15-11-2019 15:45:00 7.8 C 79 % 4.39 C
191 15-11-2019 15:50:00 7.8 C 80 % 4.57 C
192 15-11-2019 15:55:00 7.8 C 81 % 4.75 C
193 15-11-2019 16:00:00 7.7 C 81 % 4.65 C
194 15-11-2019 16:05:00 7.6 C 82 % 4.73 C
195 15-11-2019 16:10:00 7.5 C 81 % 4.46 C
196 15-11-2019 16:15:00 7.3 C 82 % 4.44 C
197 15-11-2019 16:20:00 7.1 C 82 % 4.24 C
198 15-11-2019 16:25:00 6.8 C 82 % 3.95 C
199 15-11-2019 16:30:00 6.5 C 82 % 3.66 C
200 15-11-2019 16:35:00 6.2 C 83 % 3.53 C
Sensor: Nr:Datum:Temp:Feuchte:Taupunkt:
Aussen-T/F 201 15-11-2019 16:40:00 5.8 C 84 % 3.31 C
202 15-11-2019 16:45:00 5.6 C 84 % 3.12 C
203 15-11-2019 16:50:00 5.3 C 85 % 2.99 C
204 15-11-2019 16:55:00 5.1 C 85 % 2.79 C
205 15-11-2019 17:00:00 5 C 86 % 2.86 C
206 15-11-2019 17:05:00 4.9 C 87 % 2.92 C
207 15-11-2019 17:10:00 4.8 C 88 % 2.99 C
208 15-11-2019 17:15:00 4.8 C 88 % 2.99 C
209 15-11-2019 17:20:00 4.8 C 89 % 3.14 C
210 15-11-2019 17:25:00 4.7 C 89 % 3.05 C
211 15-11-2019 17:30:00 4.7 C 89 % 3.05 C
212 15-11-2019 17:35:00 4.7 C 89 % 3.05 C
213 15-11-2019 17:40:00 4.7 C 90 % 3.2 C
214 15-11-2019 17:45:00 4.7 C 90 % 3.2 C
215 15-11-2019 17:50:00 4.7 C 90 % 3.2 C
216 15-11-2019 17:55:00 4.6 C 90 % 3.1 C
217 15-11-2019 18:00:00 4.6 C 90 % 3.1 C
218 15-11-2019 18:05:00 4.6 C 90 % 3.1 C
219 15-11-2019 18:10:00 4.6 C 90 % 3.1 C
220 15-11-2019 18:15:00 4.6 C 90 % 3.1 C
221 15-11-2019 18:20:00 4.6 C 91 % 3.26 C
222 15-11-2019 18:25:00 4.6 C 91 % 3.26 C
223 15-11-2019 18:30:00 4.6 C 91 % 3.26 C
224 15-11-2019 18:35:00 4.6 C 91 % 3.26 C
225 15-11-2019 18:40:00 4.7 C 91 % 3.36 C
Sensor: Nr:Datum:Temp:Feuchte:Taupunkt:
Aussen-T/F 226 15-11-2019 18:45:00 4.7 C 91 % 3.36 C
227 15-11-2019 18:50:00 4.7 C 91 % 3.36 C
228 15-11-2019 18:55:00 4.7 C 91 % 3.36 C
229 15-11-2019 19:00:00 4.7 C 91 % 3.36 C
230 15-11-2019 19:05:00 4.6 C 91 % 3.26 C
231 15-11-2019 19:10:00 4.6 C 91 % 3.26 C
232 15-11-2019 19:15:00 4.6 C 91 % 3.26 C
233 15-11-2019 19:20:00 4.6 C 91 % 3.26 C
234 15-11-2019 19:25:00 4.5 C 91 % 3.16 C
235 15-11-2019 19:30:00 4.5 C 92 % 3.32 C
236 15-11-2019 19:35:00 4.5 C 92 % 3.32 C
237 15-11-2019 19:40:00 4.4 C 92 % 3.22 C
238 15-11-2019 19:45:00 4.4 C 92 % 3.22 C
239 15-11-2019 19:50:00 4.4 C 92 % 3.22 C
240 15-11-2019 19:55:00 4.3 C 92 % 3.12 C
241 15-11-2019 20:00:00 4.3 C 92 % 3.12 C
242 15-11-2019 20:05:00 4.3 C 92 % 3.12 C
243 15-11-2019 20:10:00 4.3 C 92 % 3.12 C
244 15-11-2019 20:15:00 4.3 C 92 % 3.12 C
245 15-11-2019 20:20:00 4.3 C 92 % 3.12 C
246 15-11-2019 20:25:00 4.2 C 92 % 3.02 C
247 15-11-2019 20:30:00 4.2 C 92 % 3.02 C
248 15-11-2019 20:35:00 4.2 C 92 % 3.02 C
249 15-11-2019 20:40:00 4.1 C 92 % 2.92 C
250 15-11-2019 20:45:00 4.1 C 92 % 2.92 C
Sensor: Nr:Datum:Temp:Feuchte:Taupunkt:
Aussen-T/F 251 15-11-2019 20:50:00 4.1 C 92 % 2.92 C
252 15-11-2019 20:55:00 4 C 93 % 2.97 C
253 15-11-2019 21:00:00 4.1 C 93 % 3.07 C
254 15-11-2019 21:05:00 4.1 C 93 % 3.07 C
255 15-11-2019 21:10:00 4.1 C 93 % 3.07 C
256 15-11-2019 21:15:00 4.1 C 93 % 3.07 C
257 15-11-2019 21:20:00 4.1 C 93 % 3.07 C
258 15-11-2019 21:25:00 4.1 C 93 % 3.07 C
259 15-11-2019 21:30:00 4.1 C 93 % 3.07 C
260 15-11-2019 21:35:00 4.1 C 93 % 3.07 C
261 15-11-2019 21:40:00 4 C 93 % 2.97 C
262 15-11-2019 21:45:00 4 C 93 % 2.97 C
263 15-11-2019 21:50:00 3.9 C 93 % 2.87 C
264 15-11-2019 21:55:00 3.9 C 93 % 2.87 C
265 15-11-2019 22:00:00 3.9 C 93 % 2.87 C
266 15-11-2019 22:05:00 3.8 C 93 % 2.77 C
267 15-11-2019 22:10:00 3.8 C 93 % 2.77 C
268 15-11-2019 22:15:00 3.8 C 93 % 2.77 C
269 15-11-2019 22:20:00 3.7 C 93 % 2.68 C
270 15-11-2019 22:25:00 3.7 C 93 % 2.68 C
271 15-11-2019 22:30:00 3.7 C 93 % 2.68 C
272 15-11-2019 22:35:00 3.7 C 93 % 2.68 C
273 15-11-2019 22:40:00 3.6 C 93 % 2.58 C
274 15-11-2019 22:45:00 3.6 C 93 % 2.58 C
275 15-11-2019 22:50:00 3.6 C 94 % 2.73 C
Sensor: Nr:Datum:Temp:Feuchte:Taupunkt:
Aussen-T/F 276 15-11-2019 22:55:00 3.6 C 94 % 2.73 C
277 15-11-2019 23:00:00 3.6 C 94 % 2.73 C
278 15-11-2019 23:05:00 3.5 C 93 % 2.48 C
279 15-11-2019 23:10:00 3.5 C 94 % 2.63 C
280 15-11-2019 23:15:00 3.5 C 94 % 2.63 C
281 15-11-2019 23:20:00 3.5 C 94 % 2.63 C
282 15-11-2019 23:25:00 3.6 C 94 % 2.73 C
283 15-11-2019 23:30:00 3.5 C 94 % 2.63 C
284 15-11-2019 23:35:00 3.5 C 94 % 2.63 C
285 15-11-2019 23:40:00 3.5 C 94 % 2.63 C
286 15-11-2019 23:45:00 3.4 C 94 % 2.53 C
287 15-11-2019 23:50:00 3.4 C 94 % 2.53 C
288 15-11-2019 23:55:00 3.4 C 94 % 2.53 C

Legende:
   Min
   Max


Maximal/Minimal-Werte vom 15.11.2019 - 15.11.2019

Sensor Min Max Avg
Temp
(Aussen-T/F)
2.8 °C
15-11-2019  00:00:00
7.9 °C
15-11-2019  15:00:00
4.69 °C
Feuchte
(Aussen-T/F)
78 %
15-11-2019  15:05:00
94 %
15-11-2019  00:00:00
88.15 %
Taupunkt
(Aussen-T/F)
1.82 C
15-11-2019  05:45:00
4.75 C
15-11-2019  15:55:00
2.86 C

Die Daten stammen von einer Davis Vantage Pro 2 Wetter-Station und werden unter Linux mit der Software wview2wettercgi und aufbereitet. Alle Angaben erfolgen ohne Gewähr für ihre Vollständigkeit oder Richtigkeit.
Kontakt: Rainer Krienke krienke@uni-koblenz.de . Meine Webseiten an der Uni Koblenz oder privat.
Version: $Revision: 0.78 $